sensor_id;sensor_type;location;lat;lon;timestamp;P1;durP1;ratioP1;P2;durP2;ratioP2
14799;SDS011;7491;57.750;11.970;2022-09-12T00:01:03;5.47;;;4.45;;
14799;SDS011;7491;57.750;11.970;2022-09-12T00:03:34;7.18;;;4.85;;
14799;SDS011;7491;57.750;11.970;2022-09-12T00:06:06;5.55;;;4.22;;
14799;SDS011;7491;57.750;11.970;2022-09-12T00:08:34;6.05;;;5.10;;
14799;SDS011;7491;57.750;11.970;2022-09-12T00:11:03;5.40;;;4.60;;
14799;SDS011;7491;57.750;11.970;2022-09-12T00:13:30;6.70;;;5.05;;
14799;SDS011;7491;57.750;11.970;2022-09-12T00:15:57;5.88;;;5.22;;
14799;SDS011;7491;57.750;11.970;2022-09-12T00:18:23;7.60;;;4.88;;
14799;SDS011;7491;57.750;11.970;2022-09-12T00:20:52;5.47;;;4.95;;
14799;SDS011;7491;57.750;11.970;2022-09-12T00:23:19;7.55;;;4.88;;
14799;SDS011;7491;57.750;11.970;2022-09-12T00:25:46;6.50;;;5.18;;
14799;SDS011;7491;57.750;11.970;2022-09-12T00:28:14;10.93;;;4.60;;
14799;SDS011;7491;57.750;11.970;2022-09-12T00:30:43;8.85;;;5.32;;
14799;SDS011;7491;57.750;11.970;2022-09-12T00:33:11;8.13;;;4.60;;
14799;SDS011;7491;57.750;11.970;2022-09-12T00:35:42;5.28;;;4.75;;
14799;SDS011;7491;57.750;11.970;2022-09-12T00:38:11;6.13;;;4.55;;
14799;SDS011;7491;57.750;11.970;2022-09-12T00:40:38;5.45;;;4.90;;
14799;SDS011;7491;57.750;11.970;2022-09-12T00:43:08;6.18;;;5.55;;
14799;SDS011;7491;57.750;11.970;2022-09-12T00:45:38;9.00;;;5.35;;
14799;SDS011;7491;57.750;11.970;2022-09-12T00:48:07;9.55;;;5.05;;
14799;SDS011;7491;57.750;11.970;2022-09-12T00:50:48;9.13;;;5.28;;
14799;SDS011;7491;57.750;11.970;2022-09-12T00:53:17;5.28;;;4.68;;
14799;SDS011;7491;57.750;11.970;2022-09-12T00:55:46;6.78;;;4.65;;
14799;SDS011;7491;57.750;11.970;2022-09-12T00:58:17;6.38;;;4.80;;
14799;SDS011;7491;57.750;11.970;2022-09-12T01:00:48;6.57;;;4.28;;
14799;SDS011;7491;57.750;11.970;2022-09-12T01:03:16;6.63;;;5.28;;
14799;SDS011;7491;57.750;11.970;2022-09-12T01:05:46;5.68;;;5.05;;
14799;SDS011;7491;57.750;11.970;2022-09-12T01:08:20;9.77;;;4.93;;
14799;SDS011;7491;57.750;11.970;2022-09-12T01:10:48;10.32;;;4.82;;
14799;SDS011;7491;57.750;11.970;2022-09-12T01:13:15;10.95;;;5.10;;
14799;SDS011;7491;57.750;11.970;2022-09-12T01:15:42;10.48;;;5.60;;
14799;SDS011;7491;57.750;11.970;2022-09-12T01:18:10;5.97;;;4.93;;
14799;SDS011;7491;57.750;11.970;2022-09-12T01:20:45;5.10;;;4.60;;
14799;SDS011;7491;57.750;11.970;2022-09-12T01:26:54;7.47;;;4.60;;
14799;SDS011;7491;57.750;11.970;2022-09-12T01:32:33;6.43;;;4.35;;
14799;SDS011;7491;57.750;11.970;2022-09-12T01:35:11;10.45;;;4.68;;
14799;SDS011;7491;57.750;11.970;2022-09-12T01:37:46;6.97;;;4.30;;
14799;SDS011;7491;57.750;11.970;2022-09-12T01:40:20;8.48;;;4.88;;
14799;SDS011;7491;57.750;11.970;2022-09-12T01:42:53;7.20;;;4.82;;
14799;SDS011;7491;57.750;11.970;2022-09-12T01:45:28;5.85;;;4.78;;
14799;SDS011;7491;57.750;11.970;2022-09-12T01:48:02;5.97;;;4.97;;
14799;SDS011;7491;57.750;11.970;2022-09-12T01:50:38;5.47;;;4.93;;
14799;SDS011;7491;57.750;11.970;2022-09-12T01:53:11;6.88;;;4.68;;
14799;SDS011;7491;57.750;11.970;2022-09-12T01:55:44;8.50;;;4.78;;
14799;SDS011;7491;57.750;11.970;2022-09-12T01:58:16;5.22;;;4.50;;
14799;SDS011;7491;57.750;11.970;2022-09-12T02:00:47;6.28;;;4.13;;
14799;SDS011;7491;57.750;11.970;2022-09-12T02:03:21;6.20;;;4.18;;
14799;SDS011;7491;57.750;11.970;2022-09-12T02:05:54;5.45;;;4.43;;
14799;SDS011;7491;57.750;11.970;2022-09-12T02:08:25;5.70;;;4.15;;
14799;SDS011;7491;57.750;11.970;2022-09-12T02:10:58;5.30;;;4.50;;
14799;SDS011;7491;57.750;11.970;2022-09-12T02:13:30;5.95;;;4.70;;
14799;SDS011;7491;57.750;11.970;2022-09-12T02:16:02;5.10;;;4.63;;
14799;SDS011;7491;57.750;11.970;2022-09-12T02:18:35;4.50;;;3.95;;
14799;SDS011;7491;57.750;11.970;2022-09-12T02:21:05;7.78;;;4.43;;
14799;SDS011;7491;57.750;11.970;2022-09-12T02:23:33;5.22;;;4.72;;
14799;SDS011;7491;57.750;11.970;2022-09-12T02:26:04;5.28;;;4.28;;
14799;SDS011;7491;57.750;11.970;2022-09-12T02:28:37;7.25;;;4.63;;
14799;SDS011;7491;57.750;11.970;2022-09-12T02:31:08;5.82;;;4.53;;
14799;SDS011;7491;57.750;11.970;2022-09-12T02:33:44;4.25;;;3.75;;
14799;SDS011;7491;57.750;11.970;2022-09-12T02:36:15;4.28;;;3.88;;
14799;SDS011;7491;57.750;11.970;2022-09-12T02:38:48;4.75;;;4.20;;
14799;SDS011;7491;57.750;11.970;2022-09-12T02:41:16;4.65;;;3.97;;
14799;SDS011;7491;57.750;11.970;2022-09-12T02:43:45;7.47;;;4.28;;
14799;SDS011;7491;57.750;11.970;2022-09-12T02:46:18;5.22;;;4.72;;
14799;SDS011;7491;57.750;11.970;2022-09-12T02:48:49;6.05;;;4.55;;
14799;SDS011;7491;57.750;11.970;2022-09-12T02:51:16;6.50;;;4.25;;
14799;SDS011;7491;57.750;11.970;2022-09-12T02:53:43;4.07;;;3.67;;
14799;SDS011;7491;57.750;11.970;2022-09-12T02:56:11;5.15;;;4.35;;
14799;SDS011;7491;57.750;11.970;2022-09-12T02:58:43;4.43;;;4.03;;
14799;SDS011;7491;57.750;11.970;2022-09-12T03:01:11;6.28;;;4.13;;
14799;SDS011;7491;57.750;11.970;2022-09-12T03:03:53;4.53;;;4.13;;
14799;SDS011;7491;57.750;11.970;2022-09-12T03:06:29;5.28;;;4.68;;
14799;SDS011;7491;57.750;11.970;2022-09-12T03:09:03;4.97;;;4.00;;
14799;SDS011;7491;57.750;11.970;2022-09-12T03:11:43;4.80;;;4.05;;
14799;SDS011;7491;57.750;11.970;2022-09-12T03:14:26;5.65;;;4.45;;
14799;SDS011;7491;57.750;11.970;2022-09-12T03:17:06;7.72;;;4.82;;
14799;SDS011;7491;57.750;11.970;2022-09-12T03:19:46;6.30;;;4.00;;
14799;SDS011;7491;57.750;11.970;2022-09-12T03:22:20;5.40;;;4.20;;
14799;SDS011;7491;57.750;11.970;2022-09-12T03:24:55;6.28;;;4.25;;
14799;SDS011;7491;57.750;11.970;2022-09-12T03:27:28;7.45;;;4.78;;
14799;SDS011;7491;57.750;11.970;2022-09-12T03:29:59;4.53;;;4.05;;
14799;SDS011;7491;57.750;11.970;2022-09-12T03:32:39;5.55;;;4.25;;
14799;SDS011;7491;57.750;11.970;2022-09-12T03:35:09;6.53;;;4.35;;
14799;SDS011;7491;57.750;11.970;2022-09-12T03:37:37;5.93;;;4.25;;
14799;SDS011;7491;57.750;11.970;2022-09-12T03:40:04;5.57;;;4.60;;
14799;SDS011;7491;57.750;11.970;2022-09-12T03:42:32;5.82;;;3.90;;
14799;SDS011;7491;57.750;11.970;2022-09-12T03:44:58;6.30;;;4.35;;
14799;SDS011;7491;57.750;11.970;2022-09-12T03:47:25;4.88;;;4.22;;
14799;SDS011;7491;57.750;11.970;2022-09-12T03:49:52;4.90;;;4.40;;
14799;SDS011;7491;57.750;11.970;2022-09-12T03:52:20;5.20;;;4.28;;
14799;SDS011;7491;57.750;11.970;2022-09-12T03:54:47;5.55;;;4.03;;
14799;SDS011;7491;57.750;11.970;2022-09-12T03:57:13;4.70;;;4.30;;
14799;SDS011;7491;57.750;11.970;2022-09-12T03:59:41;6.30;;;4.78;;
14799;SDS011;7491;57.750;11.970;2022-09-12T04:02:08;5.30;;;4.80;;
14799;SDS011;7491;57.750;11.970;2022-09-12T04:04:36;6.13;;;5.15;;
14799;SDS011;7491;57.750;11.970;2022-09-12T04:07:04;5.47;;;4.00;;
14799;SDS011;7491;57.750;11.970;2022-09-12T04:09:32;5.65;;;4.50;;
14799;SDS011;7491;57.750;11.970;2022-09-12T04:11:59;6.65;;;4.40;;
14799;SDS011;7491;57.750;11.970;2022-09-12T04:14:26;5.53;;;4.95;;
14799;SDS011;7491;57.750;11.970;2022-09-12T04:16:53;5.72;;;4.50;;
14799;SDS011;7491;57.750;11.970;2022-09-12T04:19:20;7.38;;;4.68;;
14799;SDS011;7491;57.750;11.970;2022-09-12T04:21:47;7.22;;;4.53;;
14799;SDS011;7491;57.750;11.970;2022-09-12T04:24:14;5.78;;;4.45;;
14799;SDS011;7491;57.750;11.970;2022-09-12T04:26:42;7.43;;;5.20;;
14799;SDS011;7491;57.750;11.970;2022-09-12T04:29:09;5.55;;;4.80;;
14799;SDS011;7491;57.750;11.970;2022-09-12T04:31:37;5.35;;;4.50;;
14799;SDS011;7491;57.750;11.970;2022-09-12T04:34:04;6.70;;;4.20;;
14799;SDS011;7491;57.750;11.970;2022-09-12T04:36:32;5.15;;;4.05;;
14799;SDS011;7491;57.750;11.970;2022-09-12T04:38:59;5.68;;;4.60;;
14799;SDS011;7491;57.750;11.970;2022-09-12T04:41:27;8.70;;;5.07;;
14799;SDS011;7491;57.750;11.970;2022-09-12T04:43:57;5.40;;;4.70;;
14799;SDS011;7491;57.750;11.970;2022-09-12T04:46:26;13.38;;;5.38;;
14799;SDS011;7491;57.750;11.970;2022-09-12T04:48:54;7.95;;;4.68;;
14799;SDS011;7491;57.750;11.970;2022-09-12T04:51:22;5.65;;;5.00;;
14799;SDS011;7491;57.750;11.970;2022-09-12T04:53:52;7.10;;;4.53;;
14799;SDS011;7491;57.750;11.970;2022-09-12T04:56:21;5.45;;;4.05;;
14799;SDS011;7491;57.750;11.970;2022-09-12T04:58:48;7.13;;;4.60;;
14799;SDS011;7491;57.750;11.970;2022-09-12T05:01:17;5.20;;;4.70;;
14799;SDS011;7491;57.750;11.970;2022-09-12T05:03:48;5.57;;;4.50;;
14799;SDS011;7491;57.750;11.970;2022-09-12T05:06:16;8.35;;;4.97;;
14799;SDS011;7491;57.750;11.970;2022-09-12T05:08:45;5.82;;;4.53;;
14799;SDS011;7491;57.750;11.970;2022-09-12T05:11:13;5.20;;;4.80;;
14799;SDS011;7491;57.750;11.970;2022-09-12T05:13:41;7.00;;;5.05;;
14799;SDS011;7491;57.750;11.970;2022-09-12T05:16:09;7.47;;;5.30;;
14799;SDS011;7491;57.750;11.970;2022-09-12T05:18:38;5.25;;;4.75;;
14799;SDS011;7491;57.750;11.970;2022-09-12T05:21:05;5.40;;;4.90;;
14799;SDS011;7491;57.750;11.970;2022-09-12T05:23:33;6.50;;;4.65;;
14799;SDS011;7491;57.750;11.970;2022-09-12T05:26:01;7.78;;;4.95;;
14799;SDS011;7491;57.750;11.970;2022-09-12T05:28:29;10.20;;;4.93;;
14799;SDS011;7491;57.750;11.970;2022-09-12T05:31:00;7.05;;;5.10;;
14799;SDS011;7491;57.750;11.970;2022-09-12T05:33:28;8.65;;;5.40;;
14799;SDS011;7491;57.750;11.970;2022-09-12T05:35:56;7.82;;;6.00;;
14799;SDS011;7491;57.750;11.970;2022-09-12T05:38:23;11.32;;;5.50;;
14799;SDS011;7491;57.750;11.970;2022-09-12T05:40:50;6.57;;;5.43;;
14799;SDS011;7491;57.750;11.970;2022-09-12T05:43:17;7.35;;;5.90;;
14799;SDS011;7491;57.750;11.970;2022-09-12T05:45:44;5.93;;;5.32;;
14799;SDS011;7491;57.750;11.970;2022-09-12T05:48:11;10.13;;;5.53;;
14799;SDS011;7491;57.750;11.970;2022-09-12T05:50:37;9.80;;;5.47;;
14799;SDS011;7491;57.750;11.970;2022-09-12T05:53:07;5.82;;;5.32;;
14799;SDS011;7491;57.750;11.970;2022-09-12T05:55:34;7.57;;;5.13;;
14799;SDS011;7491;57.750;11.970;2022-09-12T05:58:00;9.13;;;5.55;;
14799;SDS011;7491;57.750;11.970;2022-09-12T06:00:27;6.22;;;5.43;;
14799;SDS011;7491;57.750;11.970;2022-09-12T06:02:54;7.55;;;6.18;;
14799;SDS011;7491;57.750;11.970;2022-09-12T06:05:21;14.02;;;5.70;;
14799;SDS011;7491;57.750;11.970;2022-09-12T06:07:48;6.80;;;6.10;;
14799;SDS011;7491;57.750;11.970;2022-09-12T06:10:17;6.75;;;5.30;;
14799;SDS011;7491;57.750;11.970;2022-09-12T06:12:46;8.80;;;6.30;;
14799;SDS011;7491;57.750;11.970;2022-09-12T06:15:13;7.05;;;5.82;;
14799;SDS011;7491;57.750;11.970;2022-09-12T06:17:40;13.98;;;6.22;;
14799;SDS011;7491;57.750;11.970;2022-09-12T06:20:07;7.22;;;6.53;;
14799;SDS011;7491;57.750;11.970;2022-09-12T06:22:34;9.45;;;6.30;;
14799;SDS011;7491;57.750;11.970;2022-09-12T06:25:01;8.95;;;6.53;;
14799;SDS011;7491;57.750;11.970;2022-09-12T06:27:30;11.07;;;5.97;;
14799;SDS011;7491;57.750;11.970;2022-09-12T06:29:57;7.13;;;6.13;;
14799;SDS011;7491;57.750;11.970;2022-09-12T06:32:24;11.60;;;5.97;;
14799;SDS011;7491;57.750;11.970;2022-09-12T06:34:51;14.82;;;6.85;;
14799;SDS011;7491;57.750;11.970;2022-09-12T06:37:18;8.68;;;5.75;;
14799;SDS011;7491;57.750;11.970;2022-09-12T06:39:45;8.02;;;6.45;;
14799;SDS011;7491;57.750;11.970;2022-09-12T06:42:12;10.05;;;7.38;;
14799;SDS011;7491;57.750;11.970;2022-09-12T06:44:41;11.73;;;6.95;;
14799;SDS011;7491;57.750;11.970;2022-09-12T06:47:08;9.63;;;5.80;;
14799;SDS011;7491;57.750;11.970;2022-09-12T06:49:36;9.57;;;6.60;;
14799;SDS011;7491;57.750;11.970;2022-09-12T06:52:03;15.07;;;8.18;;
14799;SDS011;7491;57.750;11.970;2022-09-12T06:54:31;9.52;;;7.07;;
14799;SDS011;7491;57.750;11.970;2022-09-12T06:56:58;10.43;;;7.28;;
14799;SDS011;7491;57.750;11.970;2022-09-12T06:59:25;13.27;;;7.13;;
14799;SDS011;7491;57.750;11.970;2022-09-12T07:01:53;9.32;;;6.47;;
14799;SDS011;7491;57.750;11.970;2022-09-12T07:04:20;15.15;;;6.75;;
14799;SDS011;7491;57.750;11.970;2022-09-12T07:06:47;11.57;;;5.82;;
14799;SDS011;7491;57.750;11.970;2022-09-12T07:09:14;12.95;;;6.53;;
14799;SDS011;7491;57.750;11.970;2022-09-12T07:11:41;9.93;;;6.00;;
14799;SDS011;7491;57.750;11.970;2022-09-12T07:14:10;13.15;;;5.85;;
14799;SDS011;7491;57.750;11.970;2022-09-12T07:16:38;10.10;;;5.97;;
14799;SDS011;7491;57.750;11.970;2022-09-12T07:19:06;10.57;;;5.80;;
14799;SDS011;7491;57.750;11.970;2022-09-12T07:21:34;11.27;;;6.45;;
14799;SDS011;7491;57.750;11.970;2022-09-12T07:24:04;7.43;;;6.10;;
14799;SDS011;7491;57.750;11.970;2022-09-12T07:26:32;7.88;;;6.13;;
14799;SDS011;7491;57.750;11.970;2022-09-12T07:28:59;10.65;;;5.63;;
14799;SDS011;7491;57.750;11.970;2022-09-12T07:31:26;8.43;;;5.63;;
14799;SDS011;7491;57.750;11.970;2022-09-12T07:33:53;8.15;;;5.63;;
14799;SDS011;7491;57.750;11.970;2022-09-12T07:36:23;7.82;;;5.07;;
14799;SDS011;7491;57.750;11.970;2022-09-12T07:38:54;8.02;;;5.22;;
14799;SDS011;7491;57.750;11.970;2022-09-12T07:41:22;9.95;;;5.43;;
14799;SDS011;7491;57.750;11.970;2022-09-12T07:43:51;8.75;;;5.22;;
14799;SDS011;7491;57.750;11.970;2022-09-12T07:46:18;6.50;;;5.45;;
14799;SDS011;7491;57.750;11.970;2022-09-12T07:48:48;7.57;;;5.55;;
14799;SDS011;7491;57.750;11.970;2022-09-12T07:51:15;8.23;;;5.47;;
14799;SDS011;7491;57.750;11.970;2022-09-12T07:53:44;9.77;;;5.85;;
14799;SDS011;7491;57.750;11.970;2022-09-12T07:56:11;6.15;;;5.40;;
14799;SDS011;7491;57.750;11.970;2022-09-12T07:58:39;5.05;;;4.60;;
14799;SDS011;7491;57.750;11.970;2022-09-12T08:01:07;10.27;;;5.40;;
14799;SDS011;7491;57.750;11.970;2022-09-12T08:03:37;6.70;;;5.00;;
14799;SDS011;7491;57.750;11.970;2022-09-12T08:06:04;5.85;;;4.72;;
14799;SDS011;7491;57.750;11.970;2022-09-12T08:08:31;8.63;;;4.95;;
14799;SDS011;7491;57.750;11.970;2022-09-12T08:11:00;8.75;;;5.00;;
14799;SDS011;7491;57.750;11.970;2022-09-12T08:13:29;5.68;;;4.18;;
14799;SDS011;7491;57.750;11.970;2022-09-12T08:15:57;12.85;;;5.35;;
14799;SDS011;7491;57.750;11.970;2022-09-12T08:18:24;7.95;;;4.97;;
14799;SDS011;7491;57.750;11.970;2022-09-12T08:20:55;10.52;;;4.65;;
14799;SDS011;7491;57.750;11.970;2022-09-12T08:23:23;8.20;;;4.20;;
14799;SDS011;7491;57.750;11.970;2022-09-12T08:25:50;4.63;;;3.90;;
14799;SDS011;7491;57.750;11.970;2022-09-12T08:28:18;5.88;;;4.18;;
14799;SDS011;7491;57.750;11.970;2022-09-12T08:30:45;6.40;;;4.20;;
14799;SDS011;7491;57.750;11.970;2022-09-12T08:33:11;8.38;;;3.78;;
14799;SDS011;7491;57.750;11.970;2022-09-12T08:35:39;4.97;;;3.58;;
14799;SDS011;7491;57.750;11.970;2022-09-12T08:38:06;4.85;;;3.70;;
14799;SDS011;7491;57.750;11.970;2022-09-12T08:40:32;4.55;;;3.13;;
14799;SDS011;7491;57.750;11.970;2022-09-12T08:43:12;3.90;;;3.50;;
14799;SDS011;7491;57.750;11.970;2022-09-12T08:45:56;6.15;;;3.33;;
14799;SDS011;7491;57.750;11.970;2022-09-12T08:48:27;6.28;;;3.08;;
14799;SDS011;7491;57.750;11.970;2022-09-12T08:50:55;4.60;;;3.50;;
14799;SDS011;7491;57.750;11.970;2022-09-12T08:53:22;9.43;;;3.70;;
14799;SDS011;7491;57.750;11.970;2022-09-12T08:55:55;5.15;;;3.38;;
14799;SDS011;7491;57.750;11.970;2022-09-12T08:58:26;6.10;;;3.70;;
14799;SDS011;7491;57.750;11.970;2022-09-12T09:00:56;5.88;;;2.67;;
14799;SDS011;7491;57.750;11.970;2022-09-12T09:06:46;5.00;;;3.20;;
14799;SDS011;7491;57.750;11.970;2022-09-12T09:09:34;4.07;;;2.80;;
14799;SDS011;7491;57.750;11.970;2022-09-12T09:12:14;2.42;;;2.22;;
14799;SDS011;7491;57.750;11.970;2022-09-12T09:15:02;2.17;;;1.98;;
14799;SDS011;7491;57.750;11.970;2022-09-12T09:17:39;1.85;;;1.70;;
14799;SDS011;7491;57.750;11.970;2022-09-12T09:20:21;1.92;;;1.60;;
14799;SDS011;7491;57.750;11.970;2022-09-12T09:22:54;2.38;;;1.50;;
14799;SDS011;7491;57.750;11.970;2022-09-12T09:25:28;4.35;;;1.40;;
14799;SDS011;7491;57.750;11.970;2022-09-12T09:28:03;1.40;;;1.30;;
14799;SDS011;7491;57.750;11.970;2022-09-12T09:30:40;1.25;;;1.10;;
14799;SDS011;7491;57.750;11.970;2022-09-12T09:33:09;1.40;;;1.30;;
14799;SDS011;7491;57.750;11.970;2022-09-12T09:35:46;1.45;;;1.23;;
14799;SDS011;7491;57.750;11.970;2022-09-12T09:38:21;1.95;;;1.27;;
14799;SDS011;7491;57.750;11.970;2022-09-12T09:40:54;1.65;;;1.27;;
14799;SDS011;7491;57.750;11.970;2022-09-12T09:43:28;1.83;;;1.40;;
14799;SDS011;7491;57.750;11.970;2022-09-12T09:45:57;2.67;;;1.30;;
14799;SDS011;7491;57.750;11.970;2022-09-12T09:48:24;1.35;;;1.10;;
14799;SDS011;7491;57.750;11.970;2022-09-12T09:50:56;1.45;;;1.30;;
14799;SDS011;7491;57.750;11.970;2022-09-12T09:53:26;1.80;;;1.40;;
14799;SDS011;7491;57.750;11.970;2022-09-12T09:56:00;1.42;;;1.33;;
14799;SDS011;7491;57.750;11.970;2022-09-12T09:58:34;2.35;;;1.40;;
14799;SDS011;7491;57.750;11.970;2022-09-12T10:01:03;1.80;;;1.50;;
14799;SDS011;7491;57.750;11.970;2022-09-12T10:03:33;3.65;;;1.50;;
14799;SDS011;7491;57.750;11.970;2022-09-12T10:06:05;2.85;;;1.15;;
14799;SDS011;7491;57.750;11.970;2022-09-12T10:08:34;5.32;;;1.67;;
14799;SDS011;7491;57.750;11.970;2022-09-12T10:11:03;2.65;;;1.80;;
14799;SDS011;7491;57.750;11.970;2022-09-12T10:13:33;2.85;;;1.67;;
14799;SDS011;7491;57.750;11.970;2022-09-12T10:16:16;5.75;;;2.00;;
14799;SDS011;7491;57.750;11.970;2022-09-12T10:18:46;3.33;;;1.67;;
14799;SDS011;7491;57.750;11.970;2022-09-12T10:21:14;5.88;;;1.60;;
14799;SDS011;7491;57.750;11.970;2022-09-12T10:23:45;4.07;;;1.75;;
14799;SDS011;7491;57.750;11.970;2022-09-12T10:26:15;1.50;;;1.40;;
14799;SDS011;7491;57.750;11.970;2022-09-12T10:28:46;3.38;;;1.63;;
14799;SDS011;7491;57.750;11.970;2022-09-12T10:31:24;3.03;;;1.65;;
14799;SDS011;7491;57.750;11.970;2022-09-12T10:33:53;2.95;;;1.65;;
14799;SDS011;7491;57.750;11.970;2022-09-12T10:36:21;2.45;;;1.92;;
14799;SDS011;7491;57.750;11.970;2022-09-12T10:38:49;1.70;;;1.60;;
14799;SDS011;7491;57.750;11.970;2022-09-12T10:41:17;3.70;;;2.08;;
14799;SDS011;7491;57.750;11.970;2022-09-12T10:43:46;2.50;;;1.70;;
14799;SDS011;7491;57.750;11.970;2022-09-12T10:46:20;3.92;;;2.03;;
14799;SDS011;7491;57.750;11.970;2022-09-12T10:51:39;4.88;;;1.83;;
14799;SDS011;7491;57.750;11.970;2022-09-12T10:54:07;2.22;;;1.48;;
14799;SDS011;7491;57.750;11.970;2022-09-12T10:56:37;1.88;;;1.70;;
14799;SDS011;7491;57.750;11.970;2022-09-12T10:59:09;4.78;;;1.70;;
14799;SDS011;7491;57.750;11.970;2022-09-12T11:01:52;2.30;;;1.70;;
14799;SDS011;7491;57.750;11.970;2022-09-12T11:04:25;5.38;;;1.88;;
14799;SDS011;7491;57.750;11.970;2022-09-12T11:07:00;4.57;;;1.73;;
14799;SDS011;7491;57.750;11.970;2022-09-12T11:09:44;2.53;;;1.63;;
14799;SDS011;7491;57.750;11.970;2022-09-12T11:12:18;4.60;;;1.65;;
14799;SDS011;7491;57.750;11.970;2022-09-12T11:14:55;2.83;;;1.80;;
14799;SDS011;7491;57.750;11.970;2022-09-12T11:17:41;1.60;;;1.50;;
14799;SDS011;7491;57.750;11.970;2022-09-12T11:26:29;3.05;;;1.50;;
14799;SDS011;7491;57.750;11.970;2022-09-12T11:29:08;4.35;;;1.92;;
14799;SDS011;7491;57.750;11.970;2022-09-12T11:31:48;2.95;;;1.70;;
14799;SDS011;7491;57.750;11.970;2022-09-12T11:34:36;2.03;;;1.48;;
14799;SDS011;7491;57.750;11.970;2022-09-12T11:37:15;3.90;;;1.60;;
14799;SDS011;7491;57.750;11.970;2022-09-12T11:39:52;2.10;;;1.27;;
14799;SDS011;7491;57.750;11.970;2022-09-12T11:42:22;1.50;;;1.40;;
14799;SDS011;7491;57.750;11.970;2022-09-12T11:44:58;2.72;;;1.80;;
14799;SDS011;7491;57.750;11.970;2022-09-12T11:47:30;1.95;;;1.60;;
14799;SDS011;7491;57.750;11.970;2022-09-12T11:50:03;3.13;;;1.48;;
14799;SDS011;7491;57.750;11.970;2022-09-12T11:52:41;2.85;;;1.75;;
14799;SDS011;7491;57.750;11.970;2022-09-12T11:55:10;4.00;;;1.80;;
14799;SDS011;7491;57.750;11.970;2022-09-12T11:57:42;2.92;;;1.60;;
14799;SDS011;7491;57.750;11.970;2022-09-12T12:00:14;5.35;;;1.42;;
14799;SDS011;7491;57.750;11.970;2022-09-12T12:02:47;2.75;;;1.75;;
14799;SDS011;7491;57.750;11.970;2022-09-12T12:05:23;3.83;;;1.75;;
14799;SDS011;7491;57.750;11.970;2022-09-12T12:07:53;1.38;;;1.27;;
14799;SDS011;7491;57.750;11.970;2022-09-12T12:10:24;1.60;;;1.50;;
14799;SDS011;7491;57.750;11.970;2022-09-12T12:12:59;1.38;;;1.23;;
14799;SDS011;7491;57.750;11.970;2022-09-12T12:15:28;3.40;;;1.52;;
14799;SDS011;7491;57.750;11.970;2022-09-12T12:18:00;1.75;;;1.58;;
14799;SDS011;7491;57.750;11.970;2022-09-12T12:20:30;3.17;;;1.83;;
14799;SDS011;7491;57.750;11.970;2022-09-12T12:22:56;1.50;;;1.35;;
14799;SDS011;7491;57.750;11.970;2022-09-12T12:25:25;2.88;;;1.52;;
14799;SDS011;7491;57.750;11.970;2022-09-12T12:28:04;1.60;;;1.50;;
14799;SDS011;7491;57.750;11.970;2022-09-12T12:36:30;3.63;;;1.45;;
14799;SDS011;7491;57.750;11.970;2022-09-12T12:42:09;4.25;;;1.55;;
14799;SDS011;7491;57.750;11.970;2022-09-12T12:44:46;2.97;;;1.23;;
14799;SDS011;7491;57.750;11.970;2022-09-12T12:47:16;2.33;;;1.40;;
14799;SDS011;7491;57.750;11.970;2022-09-12T12:49:48;1.50;;;1.40;;
14799;SDS011;7491;57.750;11.970;2022-09-12T12:52:18;1.50;;;1.40;;
14799;SDS011;7491;57.750;11.970;2022-09-12T12:54:50;4.97;;;1.67;;
14799;SDS011;7491;57.750;11.970;2022-09-12T13:00:30;3.13;;;1.60;;
14799;SDS011;7491;57.750;11.970;2022-09-12T13:03:00;1.95;;;1.40;;
14799;SDS011;7491;57.750;11.970;2022-09-12T13:05:37;1.50;;;1.40;;
14799;SDS011;7491;57.750;11.970;2022-09-12T13:08:08;1.65;;;1.55;;
14799;SDS011;7491;57.750;11.970;2022-09-12T13:10:36;2.38;;;1.52;;
14799;SDS011;7491;57.750;11.970;2022-09-12T13:13:05;1.95;;;1.65;;
14799;SDS011;7491;57.750;11.970;2022-09-12T13:15:46;1.83;;;1.70;;
14799;SDS011;7491;57.750;11.970;2022-09-12T13:18:16;2.25;;;1.60;;
14799;SDS011;7491;57.750;11.970;2022-09-12T13:20:50;2.72;;;2.00;;
14799;SDS011;7491;57.750;11.970;2022-09-12T13:23:22;2.47;;;1.50;;
14799;SDS011;7491;57.750;11.970;2022-09-12T13:25:52;3.35;;;1.63;;
14799;SDS011;7491;57.750;11.970;2022-09-12T13:28:21;1.90;;;1.65;;
14799;SDS011;7491;57.750;11.970;2022-09-12T13:30:53;3.20;;;1.80;;
14799;SDS011;7491;57.750;11.970;2022-09-12T13:33:27;3.70;;;1.70;;
14799;SDS011;7491;57.750;11.970;2022-09-12T13:39:11;2.40;;;1.42;;
14799;SDS011;7491;57.750;11.970;2022-09-12T13:41:47;2.60;;;1.55;;
14799;SDS011;7491;57.750;11.970;2022-09-12T13:44:36;2.65;;;1.30;;
14799;SDS011;7491;57.750;11.970;2022-09-12T13:47:08;5.03;;;1.63;;
14799;SDS011;7491;57.750;11.970;2022-09-12T13:49:39;3.28;;;1.40;;
14799;SDS011;7491;57.750;11.970;2022-09-12T13:52:08;1.83;;;1.70;;
14799;SDS011;7491;57.750;11.970;2022-09-12T13:54:45;2.22;;;1.65;;
14799;SDS011;7491;57.750;11.970;2022-09-12T13:59:58;3.10;;;1.67;;
14799;SDS011;7491;57.750;11.970;2022-09-12T14:02:27;4.43;;;1.75;;
14799;SDS011;7491;57.750;11.970;2022-09-12T14:04:57;2.13;;;1.70;;
14799;SDS011;7491;57.750;11.970;2022-09-12T14:07:33;3.45;;;1.67;;
14799;SDS011;7491;57.750;11.970;2022-09-12T14:10:12;4.53;;;1.42;;
14799;SDS011;7491;57.750;11.970;2022-09-12T14:12:44;2.33;;;1.70;;
14799;SDS011;7491;57.750;11.970;2022-09-12T14:15:15;4.32;;;1.92;;
14799;SDS011;7491;57.750;11.970;2022-09-12T14:17:47;4.90;;;1.55;;
14799;SDS011;7491;57.750;11.970;2022-09-12T14:20:16;1.67;;;1.48;;
14799;SDS011;7491;57.750;11.970;2022-09-12T14:22:44;1.80;;;1.70;;
14799;SDS011;7491;57.750;11.970;2022-09-12T14:25:14;4.57;;;2.10;;
14799;SDS011;7491;57.750;11.970;2022-09-12T14:27:44;2.72;;;1.83;;
14799;SDS011;7491;57.750;11.970;2022-09-12T14:30:29;1.92;;;1.83;;
14799;SDS011;7491;57.750;11.970;2022-09-12T14:33:15;3.63;;;1.77;;
14799;SDS011;7491;57.750;11.970;2022-09-12T14:35:45;2.60;;;2.00;;
14799;SDS011;7491;57.750;11.970;2022-09-12T14:38:17;5.20;;;1.70;;
14799;SDS011;7491;57.750;11.970;2022-09-12T14:40:59;3.80;;;1.83;;
14799;SDS011;7491;57.750;11.970;2022-09-12T14:43:27;3.20;;;2.20;;
14799;SDS011;7491;57.750;11.970;2022-09-12T14:45:56;3.63;;;2.03;;
14799;SDS011;7491;57.750;11.970;2022-09-12T14:48:25;4.50;;;2.25;;
14799;SDS011;7491;57.750;11.970;2022-09-12T14:50:59;3.90;;;2.22;;
14799;SDS011;7491;57.750;11.970;2022-09-12T14:53:32;2.08;;;1.92;;
14799;SDS011;7491;57.750;11.970;2022-09-12T14:56:10;3.42;;;1.42;;
14799;SDS011;7491;57.750;11.970;2022-09-12T14:58:41;3.67;;;2.03;;
14799;SDS011;7491;57.750;11.970;2022-09-12T15:01:22;2.88;;;1.92;;
14799;SDS011;7491;57.750;11.970;2022-09-12T15:03:51;5.68;;;2.40;;
14799;SDS011;7491;57.750;11.970;2022-09-12T15:06:21;4.40;;;2.33;;
14799;SDS011;7491;57.750;11.970;2022-09-12T15:08:51;3.67;;;1.63;;
14799;SDS011;7491;57.750;11.970;2022-09-12T15:11:20;2.03;;;1.73;;
14799;SDS011;7491;57.750;11.970;2022-09-12T15:13:48;2.58;;;2.00;;
14799;SDS011;7491;57.750;11.970;2022-09-12T15:16:14;2.65;;;2.10;;
14799;SDS011;7491;57.750;11.970;2022-09-12T15:18:41;3.28;;;1.95;;
14799;SDS011;7491;57.750;11.970;2022-09-12T15:21:10;2.50;;;1.90;;
14799;SDS011;7491;57.750;11.970;2022-09-12T15:23:40;4.32;;;2.00;;
14799;SDS011;7491;57.750;11.970;2022-09-12T15:26:09;3.75;;;2.13;;
14799;SDS011;7491;57.750;11.970;2022-09-12T15:28:40;5.03;;;1.73;;
14799;SDS011;7491;57.750;11.970;2022-09-12T15:31:10;3.25;;;1.90;;
14799;SDS011;7491;57.750;11.970;2022-09-12T15:33:40;3.50;;;1.75;;
14799;SDS011;7491;57.750;11.970;2022-09-12T15:36:11;2.65;;;1.80;;
14799;SDS011;7491;57.750;11.970;2022-09-12T15:38:43;2.13;;;1.80;;
14799;SDS011;7491;57.750;11.970;2022-09-12T15:41:11;2.38;;;1.80;;
14799;SDS011;7491;57.750;11.970;2022-09-12T15:43:46;2.28;;;1.50;;